Decoded Metar for YMLT (LAUNCESTON in AUSTRALIA) (IATA:LST) | Meteo·Mobile Aviation Weather
aviador You're here:

YMLT Decoded Metar

LAUNCESTON in AUSTRALIA
Report Time2018-08-19 05:24:00
UTC Time2018-08-19 05:26:46
Flight Rules vfr VFR
Wind190° at 19 Gusting to 29 kt
W.Decomp.*RWY 18: 19.0 kt HW 1.3 kt LCW
RWY 14: 15.4 kt HW 11.2 kt RCW
W.Rank190° ranks 11
Current wind is above 190° avg. (6.5)
Visibility9999 m
Phenomena:N/A
Clouds:Scattered 047 Hf
Scattered 058 Hf
Expected CloudBase > 3,600 ft AGL from Temp-Dew spread
CeilingNone
Temp08°C (ISA -6)
Dew Point-1°C (53% RH)
AAT-1.0°C
QNH1015 hPa
Density Alt-102 ft
Elevation584 ft
Report Wrong Elevation
Raw Report
SPECI YMLT 190524Z AUTO 19019G29KT 9999 // SCT047 SCT058 08/M01 Q1015=

Extra information for YMLT:More info

Metar Taf Metar & Taf Last 4 Metars F.Rules Stats Wind Profile Meteogram Temp Stats Airport Information Weather charts Add Link Nearby VenuesMetar ALERT Operation Metar Decoded Social comments